sensor_id;sensor_type;location;lat;lon;timestamp;P1;durP1;ratioP1;P2;durP2;ratioP2
42978;SDS011;28616;44.746;19.678;2023-05-15T00:00:31;10.57;;;5.40;;
42978;SDS011;28616;44.746;19.678;2023-05-15T00:02:57;9.77;;;5.93;;
42978;SDS011;28616;44.746;19.678;2023-05-15T00:05:22;8.25;;;4.70;;
42978;SDS011;28616;44.746;19.678;2023-05-15T00:07:48;9.90;;;5.53;;
42978;SDS011;28616;44.746;19.678;2023-05-15T00:10:14;7.97;;;5.57;;
42978;SDS011;28616;44.746;19.678;2023-05-15T00:12:40;10.38;;;5.72;;
42978;SDS011;28616;44.746;19.678;2023-05-15T00:15:06;13.60;;;5.53;;
42978;SDS011;28616;44.746;19.678;2023-05-15T00:17:32;8.02;;;5.15;;
42978;SDS011;28616;44.746;19.678;2023-05-15T00:19:58;7.53;;;5.45;;
42978;SDS011;28616;44.746;19.678;2023-05-15T00:22:24;7.32;;;5.03;;
42978;SDS011;28616;44.746;19.678;2023-05-15T00:24:50;9.73;;;4.90;;
42978;SDS011;28616;44.746;19.678;2023-05-15T00:27:16;8.85;;;5.03;;
42978;SDS011;28616;44.746;19.678;2023-05-15T00:29:42;8.73;;;5.38;;
42978;SDS011;28616;44.746;19.678;2023-05-15T00:32:07;13.30;;;4.97;;
42978;SDS011;28616;44.746;19.678;2023-05-15T00:34:33;9.10;;;4.97;;
42978;SDS011;28616;44.746;19.678;2023-05-15T00:36:59;8.15;;;5.05;;
42978;SDS011;28616;44.746;19.678;2023-05-15T00:39:25;10.50;;;5.40;;
42978;SDS011;28616;44.746;19.678;2023-05-15T00:41:51;7.75;;;4.43;;
42978;SDS011;28616;44.746;19.678;2023-05-15T00:44:18;11.18;;;5.53;;
42978;SDS011;28616;44.746;19.678;2023-05-15T00:46:45;8.93;;;4.93;;
42978;SDS011;28616;44.746;19.678;2023-05-15T00:49:13;7.35;;;4.65;;
42978;SDS011;28616;44.746;19.678;2023-05-15T00:51:41;9.45;;;5.13;;
42978;SDS011;28616;44.746;19.678;2023-05-15T00:54:08;9.10;;;4.60;;
42978;SDS011;28616;44.746;19.678;2023-05-15T00:56:34;8.18;;;5.68;;
42978;SDS011;28616;44.746;19.678;2023-05-15T00:59:03;10.02;;;5.95;;
42978;SDS011;28616;44.746;19.678;2023-05-15T01:01:30;8.10;;;5.45;;
42978;SDS011;28616;44.746;19.678;2023-05-15T01:04:01;5.65;;;4.28;;
42978;SDS011;28616;44.746;19.678;2023-05-15T01:06:28;9.10;;;5.40;;
42978;SDS011;28616;44.746;19.678;2023-05-15T01:08:55;9.25;;;5.28;;
42978;SDS011;28616;44.746;19.678;2023-05-15T01:11:24;9.00;;;4.60;;
42978;SDS011;28616;44.746;19.678;2023-05-15T01:13:59;8.88;;;4.93;;
42978;SDS011;28616;44.746;19.678;2023-05-15T01:16:24;11.48;;;5.22;;
42978;SDS011;28616;44.746;19.678;2023-05-15T01:18:50;9.63;;;5.07;;
42978;SDS011;28616;44.746;19.678;2023-05-15T01:24:20;13.60;;;5.20;;
42978;SDS011;28616;44.746;19.678;2023-05-15T01:30:01;10.00;;;6.25;;
42978;SDS011;28616;44.746;19.678;2023-05-15T01:37:32;12.07;;;7.80;;
42978;SDS011;28616;44.746;19.678;2023-05-15T01:40:01;14.60;;;8.35;;
42978;SDS011;28616;44.746;19.678;2023-05-15T01:42:32;18.08;;;8.65;;
42978;SDS011;28616;44.746;19.678;2023-05-15T01:45:00;14.20;;;7.93;;
42978;SDS011;28616;44.746;19.678;2023-05-15T01:47:32;14.30;;;6.70;;
42978;SDS011;28616;44.746;19.678;2023-05-15T01:50:03;12.25;;;7.22;;
42978;SDS011;28616;44.746;19.678;2023-05-15T01:52:35;14.55;;;7.43;;
42978;SDS011;28616;44.746;19.678;2023-05-15T01:55:04;9.10;;;6.10;;
42978;SDS011;28616;44.746;19.678;2023-05-15T01:57:31;9.10;;;5.85;;
42978;SDS011;28616;44.746;19.678;2023-05-15T01:59:59;9.60;;;5.20;;
42978;SDS011;28616;44.746;19.678;2023-05-15T02:02:26;5.13;;;3.85;;
42978;SDS011;28616;44.746;19.678;2023-05-15T02:04:53;8.02;;;4.35;;
42978;SDS011;28616;44.746;19.678;2023-05-15T02:07:20;7.50;;;4.65;;
42978;SDS011;28616;44.746;19.678;2023-05-15T02:09:46;4.95;;;3.60;;
42978;SDS011;28616;44.746;19.678;2023-05-15T02:12:13;4.25;;;3.08;;
42978;SDS011;28616;44.746;19.678;2023-05-15T02:14:39;4.10;;;3.08;;
42978;SDS011;28616;44.746;19.678;2023-05-15T02:17:07;4.60;;;3.15;;
42978;SDS011;28616;44.746;19.678;2023-05-15T02:19:32;5.28;;;3.20;;
42978;SDS011;28616;44.746;19.678;2023-05-15T02:21:58;3.30;;;2.65;;
42978;SDS011;28616;44.746;19.678;2023-05-15T02:24:24;3.10;;;2.28;;
42978;SDS011;28616;44.746;19.678;2023-05-15T02:29:19;3.30;;;2.63;;
42978;SDS011;28616;44.746;19.678;2023-05-15T02:34:33;3.15;;;2.60;;
42978;SDS011;28616;44.746;19.678;2023-05-15T02:37:12;4.53;;;2.95;;
42978;SDS011;28616;44.746;19.678;2023-05-15T02:39:42;3.88;;;2.88;;
42978;SDS011;28616;44.746;19.678;2023-05-15T02:42:10;4.38;;;2.95;;
42978;SDS011;28616;44.746;19.678;2023-05-15T02:44:38;5.63;;;2.97;;
42978;SDS011;28616;44.746;19.678;2023-05-15T02:47:06;5.32;;;3.50;;
42978;SDS011;28616;44.746;19.678;2023-05-15T02:49:33;6.30;;;2.90;;
42978;SDS011;28616;44.746;19.678;2023-05-15T02:52:00;3.40;;;2.42;;
42978;SDS011;28616;44.746;19.678;2023-05-15T02:54:25;3.95;;;2.70;;
42978;SDS011;28616;44.746;19.678;2023-05-15T02:56:51;6.93;;;3.00;;
42978;SDS011;28616;44.746;19.678;2023-05-15T02:59:17;4.15;;;2.97;;
42978;SDS011;28616;44.746;19.678;2023-05-15T03:01:44;3.47;;;2.83;;
42978;SDS011;28616;44.746;19.678;2023-05-15T03:04:13;4.78;;;2.97;;
42978;SDS011;28616;44.746;19.678;2023-05-15T03:06:39;4.93;;;2.90;;
42978;SDS011;28616;44.746;19.678;2023-05-15T03:09:05;5.40;;;3.15;;
42978;SDS011;28616;44.746;19.678;2023-05-15T03:11:31;4.50;;;3.17;;
42978;SDS011;28616;44.746;19.678;2023-05-15T03:13:57;6.57;;;3.50;;
42978;SDS011;28616;44.746;19.678;2023-05-15T03:16:24;6.22;;;3.80;;
42978;SDS011;28616;44.746;19.678;2023-05-15T03:18:50;3.47;;;3.00;;
42978;SDS011;28616;44.746;19.678;2023-05-15T03:21:17;4.78;;;2.20;;
42978;SDS011;28616;44.746;19.678;2023-05-15T03:23:43;2.50;;;2.05;;
42978;SDS011;28616;44.746;19.678;2023-05-15T03:26:08;2.88;;;2.17;;
42978;SDS011;28616;44.746;19.678;2023-05-15T03:28:34;2.83;;;2.10;;
42978;SDS011;28616;44.746;19.678;2023-05-15T03:31:00;4.90;;;3.47;;
42978;SDS011;28616;44.746;19.678;2023-05-15T03:33:26;4.28;;;2.67;;
42978;SDS011;28616;44.746;19.678;2023-05-15T03:35:51;3.08;;;2.10;;
42978;SDS011;28616;44.746;19.678;2023-05-15T03:38:18;3.10;;;2.20;;
42978;SDS011;28616;44.746;19.678;2023-05-15T03:40:44;4.22;;;2.53;;
42978;SDS011;28616;44.746;19.678;2023-05-15T03:43:10;2.90;;;1.90;;
42978;SDS011;28616;44.746;19.678;2023-05-15T03:45:35;2.63;;;2.20;;
42978;SDS011;28616;44.746;19.678;2023-05-15T03:48:02;2.33;;;2.00;;
42978;SDS011;28616;44.746;19.678;2023-05-15T03:50:29;4.60;;;1.92;;
42978;SDS011;28616;44.746;19.678;2023-05-15T03:52:55;4.10;;;2.58;;
42978;SDS011;28616;44.746;19.678;2023-05-15T03:55:21;4.38;;;2.30;;
42978;SDS011;28616;44.746;19.678;2023-05-15T03:57:47;2.45;;;2.20;;
42978;SDS011;28616;44.746;19.678;2023-05-15T04:00:12;4.93;;;3.15;;
42978;SDS011;28616;44.746;19.678;2023-05-15T04:02:38;4.82;;;3.42;;
42978;SDS011;28616;44.746;19.678;2023-05-15T04:05:05;3.15;;;2.85;;
42978;SDS011;28616;44.746;19.678;2023-05-15T04:07:32;6.13;;;3.08;;
42978;SDS011;28616;44.746;19.678;2023-05-15T04:09:59;2.85;;;2.45;;
42978;SDS011;28616;44.746;19.678;2023-05-15T04:12:28;3.72;;;2.70;;
42978;SDS011;28616;44.746;19.678;2023-05-15T04:15:12;3.67;;;2.38;;
42978;SDS011;28616;44.746;19.678;2023-05-15T04:17:45;2.80;;;2.50;;
42978;SDS011;28616;44.746;19.678;2023-05-15T04:20:13;2.83;;;2.53;;
42978;SDS011;28616;44.746;19.678;2023-05-15T04:22:40;3.08;;;2.50;;
42978;SDS011;28616;44.746;19.678;2023-05-15T04:25:07;2.30;;;2.00;;
42978;SDS011;28616;44.746;19.678;2023-05-15T04:27:34;2.65;;;2.15;;
42978;SDS011;28616;44.746;19.678;2023-05-15T04:30:00;1.85;;;1.73;;
42978;SDS011;28616;44.746;19.678;2023-05-15T04:32:27;2.40;;;2.20;;
42978;SDS011;28616;44.746;19.678;2023-05-15T04:34:54;2.90;;;2.60;;
42978;SDS011;28616;44.746;19.678;2023-05-15T04:37:20;3.05;;;2.47;;
42978;SDS011;28616;44.746;19.678;2023-05-15T04:39:46;3.80;;;2.47;;
42978;SDS011;28616;44.746;19.678;2023-05-15T04:42:12;3.33;;;2.40;;
42978;SDS011;28616;44.746;19.678;2023-05-15T04:44:37;8.05;;;5.03;;
42978;SDS011;28616;44.746;19.678;2023-05-15T04:47:04;5.38;;;2.70;;
42978;SDS011;28616;44.746;19.678;2023-05-15T04:49:30;2.75;;;2.33;;
42978;SDS011;28616;44.746;19.678;2023-05-15T04:51:56;3.60;;;2.80;;
42978;SDS011;28616;44.746;19.678;2023-05-15T04:54:21;5.75;;;4.28;;
42978;SDS011;28616;44.746;19.678;2023-05-15T04:56:47;12.20;;;6.38;;
42978;SDS011;28616;44.746;19.678;2023-05-15T04:59:13;3.15;;;2.35;;
42978;SDS011;28616;44.746;19.678;2023-05-15T05:01:40;4.30;;;3.05;;
42978;SDS011;28616;44.746;19.678;2023-05-15T05:04:06;16.27;;;9.82;;
42978;SDS011;28616;44.746;19.678;2023-05-15T05:06:32;10.07;;;5.32;;
42978;SDS011;28616;44.746;19.678;2023-05-15T05:08:58;7.47;;;3.47;;
42978;SDS011;28616;44.746;19.678;2023-05-15T05:11:23;2.63;;;2.20;;
42978;SDS011;28616;44.746;19.678;2023-05-15T05:13:49;2.83;;;1.90;;
42978;SDS011;28616;44.746;19.678;2023-05-15T05:16:15;4.20;;;2.17;;
42978;SDS011;28616;44.746;19.678;2023-05-15T05:18:41;2.90;;;2.10;;
42978;SDS011;28616;44.746;19.678;2023-05-15T05:21:06;3.60;;;2.80;;
42978;SDS011;28616;44.746;19.678;2023-05-15T05:23:32;5.03;;;3.17;;
42978;SDS011;28616;44.746;19.678;2023-05-15T05:25:58;12.98;;;6.13;;
42978;SDS011;28616;44.746;19.678;2023-05-15T05:28:24;11.25;;;4.72;;
42978;SDS011;28616;44.746;19.678;2023-05-15T05:30:50;19.80;;;8.93;;
42978;SDS011;28616;44.746;19.678;2023-05-15T05:33:16;17.83;;;9.25;;
42978;SDS011;28616;44.746;19.678;2023-05-15T05:35:42;3.50;;;2.88;;
42978;SDS011;28616;44.746;19.678;2023-05-15T05:38:08;3.45;;;2.40;;
42978;SDS011;28616;44.746;19.678;2023-05-15T05:40:33;2.28;;;2.08;;
42978;SDS011;28616;44.746;19.678;2023-05-15T05:43:00;4.60;;;3.03;;
42978;SDS011;28616;44.746;19.678;2023-05-15T05:45:26;5.57;;;2.60;;
42978;SDS011;28616;44.746;19.678;2023-05-15T05:47:55;19.00;;;8.57;;
42978;SDS011;28616;44.746;19.678;2023-05-15T05:50:22;5.53;;;2.72;;
42978;SDS011;28616;44.746;19.678;2023-05-15T05:52:48;2.70;;;2.05;;
42978;SDS011;28616;44.746;19.678;2023-05-15T05:55:14;3.92;;;2.72;;
42978;SDS011;28616;44.746;19.678;2023-05-15T05:57:40;4.30;;;3.00;;
42978;SDS011;28616;44.746;19.678;2023-05-15T06:00:06;27.35;;;10.52;;
42978;SDS011;28616;44.746;19.678;2023-05-15T06:02:35;21.73;;;9.50;;
42978;SDS011;28616;44.746;19.678;2023-05-15T06:05:02;13.43;;;7.10;;
42978;SDS011;28616;44.746;19.678;2023-05-15T06:07:28;12.32;;;7.28;;
42978;SDS011;28616;44.746;19.678;2023-05-15T06:09:54;10.73;;;6.47;;
42978;SDS011;28616;44.746;19.678;2023-05-15T06:12:20;5.55;;;3.92;;
42978;SDS011;28616;44.746;19.678;2023-05-15T06:14:46;5.63;;;3.83;;
42978;SDS011;28616;44.746;19.678;2023-05-15T06:17:12;4.60;;;3.42;;
42978;SDS011;28616;44.746;19.678;2023-05-15T06:19:38;3.90;;;2.67;;
42978;SDS011;28616;44.746;19.678;2023-05-15T06:22:03;2.72;;;2.53;;
42978;SDS011;28616;44.746;19.678;2023-05-15T06:24:29;3.20;;;2.63;;
42978;SDS011;28616;44.746;19.678;2023-05-15T06:26:55;6.30;;;3.50;;
42978;SDS011;28616;44.746;19.678;2023-05-15T06:29:21;3.92;;;3.38;;
42978;SDS011;28616;44.746;19.678;2023-05-15T06:31:47;4.75;;;4.07;;
42978;SDS011;28616;44.746;19.678;2023-05-15T06:34:13;4.07;;;3.53;;
42978;SDS011;28616;44.746;19.678;2023-05-15T06:36:39;3.40;;;3.10;;
42978;SDS011;28616;44.746;19.678;2023-05-15T06:39:04;15.32;;;8.52;;
42978;SDS011;28616;44.746;19.678;2023-05-15T06:41:31;7.35;;;4.53;;
42978;SDS011;28616;44.746;19.678;2023-05-15T06:43:57;21.58;;;12.95;;
42978;SDS011;28616;44.746;19.678;2023-05-15T06:46:23;9.90;;;6.55;;
42978;SDS011;28616;44.746;19.678;2023-05-15T06:48:49;8.95;;;6.47;;
42978;SDS011;28616;44.746;19.678;2023-05-15T06:51:15;12.98;;;8.85;;
42978;SDS011;28616;44.746;19.678;2023-05-15T06:53:41;9.05;;;5.75;;
42978;SDS011;28616;44.746;19.678;2023-05-15T06:56:07;4.20;;;3.55;;
42978;SDS011;28616;44.746;19.678;2023-05-15T06:58:33;3.72;;;3.00;;
42978;SDS011;28616;44.746;19.678;2023-05-15T07:00:59;6.53;;;2.70;;
42978;SDS011;28616;44.746;19.678;2023-05-15T07:03:27;2.08;;;1.88;;
42978;SDS011;28616;44.746;19.678;2023-05-15T07:05:56;2.10;;;1.90;;
42978;SDS011;28616;44.746;19.678;2023-05-15T07:08:22;1.80;;;1.70;;
42978;SDS011;28616;44.746;19.678;2023-05-15T07:10:48;1.90;;;1.77;;
42978;SDS011;28616;44.746;19.678;2023-05-15T07:13:17;3.95;;;2.63;;
42978;SDS011;28616;44.746;19.678;2023-05-15T07:15:44;5.90;;;4.97;;
42978;SDS011;28616;44.746;19.678;2023-05-15T07:18:09;6.88;;;5.95;;
42978;SDS011;28616;44.746;19.678;2023-05-15T07:20:35;5.55;;;4.68;;
42978;SDS011;28616;44.746;19.678;2023-05-15T07:23:02;4.82;;;3.97;;
42978;SDS011;28616;44.746;19.678;2023-05-15T07:25:28;7.38;;;4.70;;
42978;SDS011;28616;44.746;19.678;2023-05-15T07:27:53;7.43;;;4.53;;
42978;SDS011;28616;44.746;19.678;2023-05-15T07:30:19;5.38;;;4.03;;
42978;SDS011;28616;44.746;19.678;2023-05-15T07:32:45;8.88;;;4.25;;
42978;SDS011;28616;44.746;19.678;2023-05-15T07:35:11;13.40;;;7.10;;
42978;SDS011;28616;44.746;19.678;2023-05-15T07:37:37;4.60;;;3.42;;
42978;SDS011;28616;44.746;19.678;2023-05-15T07:40:03;4.82;;;3.50;;
42978;SDS011;28616;44.746;19.678;2023-05-15T07:42:30;5.28;;;3.72;;
42978;SDS011;28616;44.746;19.678;2023-05-15T07:44:55;3.33;;;2.88;;
42978;SDS011;28616;44.746;19.678;2023-05-15T07:47:21;4.53;;;3.47;;
42978;SDS011;28616;44.746;19.678;2023-05-15T07:49:47;3.72;;;2.80;;
42978;SDS011;28616;44.746;19.678;2023-05-15T07:52:13;3.58;;;2.78;;
42978;SDS011;28616;44.746;19.678;2023-05-15T07:54:39;9.43;;;4.57;;
42978;SDS011;28616;44.746;19.678;2023-05-15T07:57:06;26.38;;;12.27;;
42978;SDS011;28616;44.746;19.678;2023-05-15T07:59:33;6.07;;;3.95;;
42978;SDS011;28616;44.746;19.678;2023-05-15T08:01:59;3.70;;;2.95;;
42978;SDS011;28616;44.746;19.678;2023-05-15T08:04:25;4.68;;;3.33;;
42978;SDS011;28616;44.746;19.678;2023-05-15T08:06:51;6.10;;;3.83;;
42978;SDS011;28616;44.746;19.678;2023-05-15T08:09:17;5.38;;;3.70;;
42978;SDS011;28616;44.746;19.678;2023-05-15T08:11:43;6.63;;;5.85;;
42978;SDS011;28616;44.746;19.678;2023-05-15T08:14:09;6.53;;;5.60;;
42978;SDS011;28616;44.746;19.678;2023-05-15T08:16:35;14.85;;;7.03;;
42978;SDS011;28616;44.746;19.678;2023-05-15T08:19:01;13.02;;;8.00;;
42978;SDS011;28616;44.746;19.678;2023-05-15T08:21:29;28.67;;;13.80;;
42978;SDS011;28616;44.746;19.678;2023-05-15T08:23:55;9.05;;;5.13;;
42978;SDS011;28616;44.746;19.678;2023-05-15T08:26:21;11.25;;;5.70;;
42978;SDS011;28616;44.746;19.678;2023-05-15T08:28:47;18.05;;;10.90;;
42978;SDS011;28616;44.746;19.678;2023-05-15T08:31:13;18.95;;;9.70;;
42978;SDS011;28616;44.746;19.678;2023-05-15T08:33:39;15.57;;;8.18;;
42978;SDS011;28616;44.746;19.678;2023-05-15T08:36:06;8.55;;;5.82;;
42978;SDS011;28616;44.746;19.678;2023-05-15T08:38:32;12.48;;;5.30;;
42978;SDS011;28616;44.746;19.678;2023-05-15T08:41:00;7.60;;;4.50;;
42978;SDS011;28616;44.746;19.678;2023-05-15T08:43:31;10.73;;;4.30;;
42978;SDS011;28616;44.746;19.678;2023-05-15T08:46:00;19.85;;;10.95;;
42978;SDS011;28616;44.746;19.678;2023-05-15T08:48:26;22.30;;;11.80;;
42978;SDS011;28616;44.746;19.678;2023-05-15T08:50:57;11.45;;;6.82;;
42978;SDS011;28616;44.746;19.678;2023-05-15T08:53:25;7.90;;;6.35;;
42978;SDS011;28616;44.746;19.678;2023-05-15T08:55:52;7.90;;;5.82;;
42978;SDS011;28616;44.746;19.678;2023-05-15T08:58:18;9.77;;;7.07;;
42978;SDS011;28616;44.746;19.678;2023-05-15T09:03:16;13.93;;;7.15;;
42978;SDS011;28616;44.746;19.678;2023-05-15T09:05:44;12.85;;;7.30;;
42978;SDS011;28616;44.746;19.678;2023-05-15T09:08:12;11.50;;;8.23;;
42978;SDS011;28616;44.746;19.678;2023-05-15T09:10:40;8.50;;;7.22;;
42978;SDS011;28616;44.746;19.678;2023-05-15T09:13:06;9.15;;;6.97;;
42978;SDS011;28616;44.746;19.678;2023-05-15T09:15:33;11.93;;;8.45;;
42978;SDS011;28616;44.746;19.678;2023-05-15T09:18:01;22.10;;;10.00;;
42978;SDS011;28616;44.746;19.678;2023-05-15T09:20:30;13.55;;;8.13;;
42978;SDS011;28616;44.746;19.678;2023-05-15T09:23:04;8.90;;;6.30;;
42978;SDS011;28616;44.746;19.678;2023-05-15T09:25:45;8.05;;;6.03;;
42978;SDS011;28616;44.746;19.678;2023-05-15T09:28:29;8.25;;;5.47;;
42978;SDS011;28616;44.746;19.678;2023-05-15T09:30:57;7.10;;;5.25;;
42978;SDS011;28616;44.746;19.678;2023-05-15T09:33:30;7.90;;;5.50;;
42978;SDS011;28616;44.746;19.678;2023-05-15T09:36:02;6.43;;;4.20;;
42978;SDS011;28616;44.746;19.678;2023-05-15T09:38:33;15.07;;;8.13;;
42978;SDS011;28616;44.746;19.678;2023-05-15T09:41:03;7.65;;;5.80;;
42978;SDS011;28616;44.746;19.678;2023-05-15T09:43:34;7.07;;;5.18;;
42978;SDS011;28616;44.746;19.678;2023-05-15T09:46:01;9.87;;;5.40;;
42978;SDS011;28616;44.746;19.678;2023-05-15T09:48:27;11.05;;;6.40;;
42978;SDS011;28616;44.746;19.678;2023-05-15T09:50:55;10.93;;;6.38;;
42978;SDS011;28616;44.746;19.678;2023-05-15T09:53:21;10.50;;;6.95;;
42978;SDS011;28616;44.746;19.678;2023-05-15T09:55:47;5.53;;;3.90;;
42978;SDS011;28616;44.746;19.678;2023-05-15T09:58:15;8.52;;;4.13;;
42978;SDS011;28616;44.746;19.678;2023-05-15T10:00:42;4.68;;;3.90;;
42978;SDS011;28616;44.746;19.678;2023-05-15T10:03:10;8.40;;;5.20;;
42978;SDS011;28616;44.746;19.678;2023-05-15T10:05:37;6.60;;;4.80;;
42978;SDS011;28616;44.746;19.678;2023-05-15T10:08:03;10.68;;;6.00;;
42978;SDS011;28616;44.746;19.678;2023-05-15T10:10:30;12.75;;;6.25;;
42978;SDS011;28616;44.746;19.678;2023-05-15T10:12:57;16.52;;;7.32;;
42978;SDS011;28616;44.746;19.678;2023-05-15T10:15:27;7.38;;;5.65;;
42978;SDS011;28616;44.746;19.678;2023-05-15T10:17:53;8.98;;;5.05;;
42978;SDS011;28616;44.746;19.678;2023-05-15T10:20:22;5.95;;;5.35;;
42978;SDS011;28616;44.746;19.678;2023-05-15T10:22:49;7.05;;;4.85;;
42978;SDS011;28616;44.746;19.678;2023-05-15T10:25:26;6.85;;;5.28;;
42978;SDS011;28616;44.746;19.678;2023-05-15T10:27:56;11.15;;;5.30;;
42978;SDS011;28616;44.746;19.678;2023-05-15T10:30:22;8.73;;;5.68;;
42978;SDS011;28616;44.746;19.678;2023-05-15T10:32:50;6.90;;;5.18;;
42978;SDS011;28616;44.746;19.678;2023-05-15T10:35:16;8.00;;;6.07;;
42978;SDS011;28616;44.746;19.678;2023-05-15T10:37:45;43.03;;;17.63;;
42978;SDS011;28616;44.746;19.678;2023-05-15T10:40:13;9.43;;;6.85;;
42978;SDS011;28616;44.746;19.678;2023-05-15T10:42:41;27.65;;;12.43;;
42978;SDS011;28616;44.746;19.678;2023-05-15T10:45:09;17.10;;;8.65;;
42978;SDS011;28616;44.746;19.678;2023-05-15T10:47:36;8.70;;;7.15;;
42978;SDS011;28616;44.746;19.678;2023-05-15T10:50:04;9.68;;;7.22;;
42978;SDS011;28616;44.746;19.678;2023-05-15T10:52:31;9.98;;;8.13;;
42978;SDS011;28616;44.746;19.678;2023-05-15T10:54:57;21.05;;;10.20;;
42978;SDS011;28616;44.746;19.678;2023-05-15T10:57:24;12.02;;;8.35;;
42978;SDS011;28616;44.746;19.678;2023-05-15T10:59:52;12.13;;;8.30;;
42978;SDS011;28616;44.746;19.678;2023-05-15T11:02:19;11.95;;;8.80;;
42978;SDS011;28616;44.746;19.678;2023-05-15T11:04:57;13.63;;;8.18;;
42978;SDS011;28616;44.746;19.678;2023-05-15T11:07:24;18.70;;;10.07;;
42978;SDS011;28616;44.746;19.678;2023-05-15T11:09:53;10.82;;;9.10;;
42978;SDS011;28616;44.746;19.678;2023-05-15T11:12:20;11.05;;;8.75;;
42978;SDS011;28616;44.746;19.678;2023-05-15T11:17:22;13.40;;;8.90;;
42978;SDS011;28616;44.746;19.678;2023-05-15T11:27:16;14.30;;;11.25;;
42978;SDS011;28616;44.746;19.678;2023-05-15T11:35:32;16.85;;;10.05;;
42978;SDS011;28616;44.746;19.678;2023-05-15T11:38:00;12.63;;;10.55;;
42978;SDS011;28616;44.746;19.678;2023-05-15T11:40:48;11.70;;;8.10;;
42978;SDS011;28616;44.746;19.678;2023-05-15T11:45:47;10.93;;;8.57;;
42978;SDS011;28616;44.746;19.678;2023-05-15T11:48:16;12.63;;;9.52;;
42978;SDS011;28616;44.746;19.678;2023-05-15T11:50:43;12.27;;;8.80;;
42978;SDS011;28616;44.746;19.678;2023-05-15T11:53:10;14.70;;;8.52;;
42978;SDS011;28616;44.746;19.678;2023-05-15T11:55:37;11.48;;;8.85;;
42978;SDS011;28616;44.746;19.678;2023-05-15T11:58:04;13.32;;;9.40;;
42978;SDS011;28616;44.746;19.678;2023-05-15T12:00:34;14.68;;;9.27;;
42978;SDS011;28616;44.746;19.678;2023-05-15T12:03:00;15.40;;;9.85;;
42978;SDS011;28616;44.746;19.678;2023-05-15T12:05:27;14.30;;;9.43;;
42978;SDS011;28616;44.746;19.678;2023-05-15T12:07:55;15.98;;;10.73;;
42978;SDS011;28616;44.746;19.678;2023-05-15T12:10:21;12.82;;;10.30;;
42978;SDS011;28616;44.746;19.678;2023-05-15T12:12:47;15.52;;;10.48;;
42978;SDS011;28616;44.746;19.678;2023-05-15T12:15:14;14.55;;;11.43;;
42978;SDS011;28616;44.746;19.678;2023-05-15T12:17:43;15.30;;;11.70;;
42978;SDS011;28616;44.746;19.678;2023-05-15T12:20:10;17.35;;;10.75;;
42978;SDS011;28616;44.746;19.678;2023-05-15T12:25:07;15.23;;;11.20;;
42978;SDS011;28616;44.746;19.678;2023-05-15T12:27:35;17.85;;;12.27;;
42978;SDS011;28616;44.746;19.678;2023-05-15T12:30:02;18.27;;;12.32;;
42978;SDS011;28616;44.746;19.678;2023-05-15T12:32:30;16.23;;;10.88;;
42978;SDS011;28616;44.746;19.678;2023-05-15T12:34:59;16.88;;;11.02;;
42978;SDS011;28616;44.746;19.678;2023-05-15T12:37:26;19.25;;;11.38;;
42978;SDS011;28616;44.746;19.678;2023-05-15T12:39:55;14.15;;;11.05;;
42978;SDS011;28616;44.746;19.678;2023-05-15T12:42:25;14.30;;;11.20;;
42978;SDS011;28616;44.746;19.678;2023-05-15T12:44:51;19.23;;;10.73;;
42978;SDS011;28616;44.746;19.678;2023-05-15T12:47:22;16.02;;;11.63;;
42978;SDS011;28616;44.746;19.678;2023-05-15T12:49:48;18.20;;;13.35;;
42978;SDS011;28616;44.746;19.678;2023-05-15T12:52:14;19.58;;;12.70;;
42978;SDS011;28616;44.746;19.678;2023-05-15T12:54:42;18.35;;;12.80;;
42978;SDS011;28616;44.746;19.678;2023-05-15T12:57:08;16.83;;;12.98;;
42978;SDS011;28616;44.746;19.678;2023-05-15T12:59:35;18.42;;;13.23;;
42978;SDS011;28616;44.746;19.678;2023-05-15T13:02:02;17.52;;;13.10;;
42978;SDS011;28616;44.746;19.678;2023-05-15T13:04:31;21.98;;;14.20;;
42978;SDS011;28616;44.746;19.678;2023-05-15T13:06:57;18.80;;;13.75;;
42978;SDS011;28616;44.746;19.678;2023-05-15T13:09:23;24.02;;;14.45;;
42978;SDS011;28616;44.746;19.678;2023-05-15T13:11:53;22.83;;;15.32;;
42978;SDS011;28616;44.746;19.678;2023-05-15T13:14:20;19.73;;;15.00;;
42978;SDS011;28616;44.746;19.678;2023-05-15T13:16:47;22.58;;;14.63;;
42978;SDS011;28616;44.746;19.678;2023-05-15T13:19:13;21.65;;;14.60;;
42978;SDS011;28616;44.746;19.678;2023-05-15T13:21:43;22.05;;;15.10;;
42978;SDS011;28616;44.746;19.678;2023-05-15T13:24:09;26.02;;;16.80;;
42978;SDS011;28616;44.746;19.678;2023-05-15T13:26:36;23.10;;;15.05;;
42978;SDS011;28616;44.746;19.678;2023-05-15T13:29:01;25.23;;;17.08;;
42978;SDS011;28616;44.746;19.678;2023-05-15T13:31:27;23.92;;;16.33;;
42978;SDS011;28616;44.746;19.678;2023-05-15T13:33:56;24.83;;;16.35;;
42978;SDS011;28616;44.746;19.678;2023-05-15T13:36:22;23.75;;;16.85;;
42978;SDS011;28616;44.746;19.678;2023-05-15T13:38:47;24.42;;;17.40;;
42978;SDS011;28616;44.746;19.678;2023-05-15T13:41:13;21.27;;;16.77;;
42978;SDS011;28616;44.746;19.678;2023-05-15T13:43:39;27.20;;;17.00;;
42978;SDS011;28616;44.746;19.678;2023-05-15T13:46:05;25.35;;;18.45;;
42978;SDS011;28616;44.746;19.678;2023-05-15T13:48:31;27.75;;;18.65;;
42978;SDS011;28616;44.746;19.678;2023-05-15T13:50:57;23.92;;;16.88;;
42978;SDS011;28616;44.746;19.678;2023-05-15T13:53:22;28.58;;;16.83;;
42978;SDS011;28616;44.746;19.678;2023-05-15T13:55:48;29.33;;;19.13;;
42978;SDS011;28616;44.746;19.678;2023-05-15T13:58:14;24.95;;;16.58;;
42978;SDS011;28616;44.746;19.678;2023-05-15T14:00:41;27.58;;;18.25;;
42978;SDS011;28616;44.746;19.678;2023-05-15T14:03:07;27.80;;;15.88;;
42978;SDS011;28616;44.746;19.678;2023-05-15T14:05:33;24.05;;;15.95;;
42978;SDS011;28616;44.746;19.678;2023-05-15T14:07:59;26.20;;;16.15;;
42978;SDS011;28616;44.746;19.678;2023-05-15T14:10:25;22.08;;;15.77;;
42978;SDS011;28616;44.746;19.678;2023-05-15T14:12:51;24.02;;;15.43;;
42978;SDS011;28616;44.746;19.678;2023-05-15T14:15:17;30.42;;;16.27;;
42978;SDS011;28616;44.746;19.678;2023-05-15T14:17:43;24.67;;;16.65;;
42978;SDS011;28616;44.746;19.678;2023-05-15T14:20:10;30.50;;;18.63;;
42978;SDS011;28616;44.746;19.678;2023-05-15T14:22:36;28.83;;;18.80;;
42978;SDS011;28616;44.746;19.678;2023-05-15T14:25:03;29.30;;;18.80;;
42978;SDS011;28616;44.746;19.678;2023-05-15T14:27:30;34.40;;;20.60;;
42978;SDS011;28616;44.746;19.678;2023-05-15T14:29:56;36.38;;;23.35;;
42978;SDS011;28616;44.746;19.678;2023-05-15T14:32:22;37.33;;;23.10;;
42978;SDS011;28616;44.746;19.678;2023-05-15T14:34:48;34.58;;;22.92;;
42978;SDS011;28616;44.746;19.678;2023-05-15T14:37:13;36.05;;;22.02;;
42978;SDS011;28616;44.746;19.678;2023-05-15T14:39:39;38.72;;;22.92;;
42978;SDS011;28616;44.746;19.678;2023-05-15T14:42:05;35.20;;;23.25;;
42978;SDS011;28616;44.746;19.678;2023-05-15T14:44:32;40.72;;;24.58;;
42978;SDS011;28616;44.746;19.678;2023-05-15T14:47:05;36.78;;;23.45;;
42978;SDS011;28616;44.746;19.678;2023-05-15T14:49:36;40.85;;;24.42;;
42978;SDS011;28616;44.746;19.678;2023-05-15T14:52:03;44.40;;;25.00;;
42978;SDS011;28616;44.746;19.678;2023-05-15T14:54:31;40.28;;;26.70;;
42978;SDS011;28616;44.746;19.678;2023-05-15T14:56:56;41.00;;;25.55;;
42978;SDS011;28616;44.746;19.678;2023-05-15T14:59:23;78.00;;;40.33;;
42978;SDS011;28616;44.746;19.678;2023-05-15T15:01:49;90.43;;;45.55;;
42978;SDS011;28616;44.746;19.678;2023-05-15T15:04:15;59.20;;;33.70;;